createdAt,value
2022-11-30T00:04:25.551Z,2.58
2022-11-30T00:09:27.528Z,2.57
2022-11-30T00:14:29.316Z,2.63
2022-11-30T00:19:30.864Z,2.64
2022-11-30T00:24:32.655Z,2.62
2022-11-30T00:29:33.974Z,2.62
2022-11-30T00:34:35.421Z,2.62
2022-11-30T00:39:37.190Z,2.61
2022-11-30T00:44:38.769Z,2.59
2022-11-30T00:49:39.992Z,2.61
2022-11-30T00:54:41.807Z,2.64
2022-11-30T00:59:43.392Z,2.55
2022-11-30T01:04:45.522Z,2.57
2022-11-30T01:09:47.095Z,2.61
2022-11-30T01:14:49.114Z,2.69
2022-11-30T01:19:50.945Z,2.72
2022-11-30T01:24:52.374Z,2.76
2022-11-30T01:29:54.435Z,2.8
2022-11-30T01:34:56.133Z,2.85
2022-11-30T01:39:57.396Z,2.86
2022-11-30T01:44:59.006Z,2.84
2022-11-30T01:50:00.187Z,2.84
2022-11-30T01:55:02.019Z,2.86
2022-11-30T02:00:03.785Z,2.87
2022-11-30T02:05:05.229Z,2.82
2022-11-30T02:10:06.846Z,2.81
2022-11-30T02:15:08.581Z,2.81
2022-11-30T02:20:09.739Z,2.8
2022-11-30T02:20:16.057Z,2.81
2022-11-30T02:25:17.292Z,2.8
2022-11-30T02:30:18.760Z,2.82
2022-11-30T02:35:20.482Z,2.83
2022-11-30T02:40:21.983Z,2.83
2022-11-30T02:45:23.897Z,2.82
2022-11-30T02:50:25.485Z,2.82
2022-11-30T02:55:27.417Z,2.85
2022-11-30T03:00:29.042Z,2.83
2022-11-30T03:05:30.684Z,2.79
2022-11-30T03:10:32.565Z,2.82
2022-11-30T03:15:34.200Z,2.82
2022-11-30T03:20:35.756Z,2.82
2022-11-30T03:25:37.430Z,2.79
2022-11-30T03:30:39.089Z,2.8
2022-11-30T03:35:40.945Z,2.76
2022-11-30T03:40:42.302Z,2.79
2022-11-30T03:45:43.676Z,2.77
2022-11-30T03:50:45.655Z,2.72
2022-11-30T03:55:47.020Z,2.67
2022-11-30T04:15:53.637Z,2.45
2022-11-30T04:36:00.222Z,2.39
2022-11-30T04:56:07.221Z,2.44
2022-11-30T05:06:10.512Z,2.4
2022-11-30T05:11:12.445Z,2.43
2022-11-30T05:26:16.945Z,2.47
2022-11-30T05:31:18.897Z,2.5
2022-11-30T05:36:20.994Z,2.56
2022-11-30T05:41:22.443Z,2.57
2022-11-30T05:46:24.508Z,2.57
2022-11-30T05:51:26.055Z,2.58
2022-11-30T05:56:28.192Z,2.62
2022-11-30T06:01:29.770Z,2.66
2022-11-30T06:06:31.218Z,2.67
2022-11-30T06:11:32.638Z,2.65
2022-11-30T06:16:34.714Z,2.67
2022-11-30T06:21:36.552Z,2.62
2022-11-30T06:26:38.382Z,2.61
2022-11-30T06:31:40.266Z,2.63
2022-11-30T06:36:42.013Z,2.69
2022-11-30T06:41:43.509Z,2.75
2022-11-30T06:46:45.198Z,2.78
2022-11-30T06:51:46.586Z,2.81
2022-11-30T06:56:48.008Z,2.84
2022-11-30T07:01:50.174Z,2.87
2022-11-30T07:06:51.896Z,2.81
2022-11-30T07:11:53.686Z,2.85
2022-11-30T07:16:55.711Z,2.9
2022-11-30T07:21:56.838Z,2.94
2022-11-30T07:26:58.413Z,2.93
2022-11-30T07:32:00.536Z,2.89
2022-11-30T07:37:01.968Z,2.87
2022-11-30T07:42:03.587Z,2.9
2022-11-30T07:47:05.760Z,2.83
2022-11-30T07:52:07.863Z,2.79
2022-11-30T07:57:09.970Z,2.82
2022-11-30T08:02:11.376Z,2.92
2022-11-30T08:07:12.419Z,3.05
2022-11-30T08:12:14.389Z,3.18
2022-11-30T08:17:16.604Z,3.3
2022-11-30T08:22:18.165Z,3.43
2022-11-30T08:27:19.760Z,3.49
2022-11-30T08:32:21.849Z,3.46
2022-11-30T08:37:23.310Z,3.5
2022-11-30T08:42:24.810Z,3.47
2022-11-30T08:47:27.064Z,3.51
2022-11-30T08:52:28.408Z,3.6
2022-11-30T08:57:30.474Z,3.71
2022-11-30T09:02:32.117Z,3.78
2022-11-30T09:07:33.383Z,3.74
2022-11-30T09:12:35.320Z,3.77
2022-11-30T09:17:37.201Z,3.86
2022-11-30T09:22:39.132Z,3.92
2022-11-30T09:27:41.383Z,3.73
2022-11-30T09:32:43.321Z,3.79
2022-11-30T09:37:44.989Z,3.74
2022-11-30T09:42:46.481Z,3.77
2022-11-30T09:47:47.850Z,3.79
2022-11-30T09:52:49.440Z,3.79
2022-11-30T09:57:51.104Z,3.9
2022-11-30T10:02:53.178Z,4
2022-11-30T10:07:54.620Z,3.75
2022-11-30T10:12:55.952Z,3.76
2022-11-30T10:17:57.462Z,3.79
2022-11-30T10:22:59.456Z,3.82
2022-11-30T10:28:12.559Z,3.86
2022-11-30T10:33:03.363Z,3.82
2022-11-30T10:38:04.893Z,3.92
2022-11-30T10:43:06.658Z,3.94
2022-11-30T10:48:08.809Z,3.91
2022-11-30T10:53:10.548Z,3.92
2022-11-30T10:58:12.239Z,3.92
2022-11-30T11:03:13.612Z,3.88
2022-11-30T11:08:15.731Z,3.95
2022-11-30T11:13:17.493Z,4.11
2022-11-30T11:18:19.428Z,4.23
2022-11-30T11:23:20.592Z,4.19
2022-11-30T11:28:22.784Z,4.17
2022-11-30T11:33:24.273Z,4.37
2022-11-30T11:38:25.471Z,4.39
2022-11-30T11:43:27.513Z,4.29
2022-11-30T11:48:29.490Z,4.21
2022-11-30T11:53:30.904Z,4.19
2022-11-30T11:58:32.208Z,4.23
2022-11-30T12:03:33.431Z,4.19
2022-11-30T12:08:34.737Z,4.23
2022-11-30T12:13:35.923Z,4.3
2022-11-30T12:18:38.001Z,4.33
2022-11-30T12:23:39.791Z,4.35
2022-11-30T12:28:41.072Z,4.38
2022-11-30T12:33:42.895Z,4.37
2022-11-30T12:38:44.296Z,4.27
2022-11-30T12:43:46.241Z,4.29
2022-11-30T12:48:48.284Z,4.38
2022-11-30T12:53:49.660Z,4.31
2022-11-30T12:58:51.352Z,4.19
2022-11-30T13:03:53.241Z,4.09
2022-11-30T13:08:54.646Z,4.19
2022-11-30T13:13:56.130Z,4.12
2022-11-30T13:18:58.047Z,4.06
2022-11-30T13:23:59.798Z,4.14
2022-11-30T13:29:01.802Z,4.07
2022-11-30T13:34:03.500Z,4.05
2022-11-30T13:39:04.990Z,4.08
2022-11-30T13:44:06.252Z,4.14
2022-11-30T13:49:07.561Z,4.19
2022-11-30T13:54:26.704Z,4.17
2022-11-30T13:59:10.727Z,4.19
2022-11-30T14:04:12.490Z,4.21
2022-11-30T14:09:14.494Z,4.21
2022-11-30T14:14:15.969Z,3.9
2022-11-30T14:19:17.726Z,3.94
2022-11-30T14:24:19.360Z,3.93
2022-11-30T14:29:21.497Z,3.93
2022-11-30T14:34:23.665Z,3.89
2022-11-30T14:39:25.028Z,3.81
2022-11-30T14:44:26.305Z,3.8
2022-11-30T14:49:27.679Z,3.76
2022-11-30T14:54:28.924Z,3.55
2022-11-30T14:59:30.437Z,3.56
2022-11-30T15:04:31.986Z,3.57
2022-11-30T15:09:33.994Z,3.55
2022-11-30T15:14:36.138Z,3.39
2022-11-30T15:19:38.088Z,3.26
2022-11-30T15:24:40.046Z,3.23
2022-11-30T15:29:41.630Z,3.1
2022-11-30T15:34:43.765Z,3.02
2022-11-30T15:39:45.262Z,3.05
2022-11-30T15:44:46.658Z,3.07
2022-11-30T15:49:48.845Z,3.07
2022-11-30T15:54:50.011Z,2.94
2022-11-30T15:59:51.583Z,2.94
2022-11-30T16:04:52.876Z,2.8
2022-11-30T16:09:54.794Z,2.61
2022-11-30T16:14:56.164Z,2.52
2022-11-30T16:19:57.817Z,2.47
2022-11-30T16:24:59.050Z,2.4
2022-11-30T16:30:00.827Z,2.22
2022-11-30T16:35:02.689Z,2.19
2022-11-30T16:40:04.312Z,2.24
2022-11-30T16:45:05.686Z,2.24
2022-11-30T16:50:07.077Z,2.25
2022-11-30T16:55:08.403Z,2.31
2022-11-30T17:00:10.544Z,2.39
2022-11-30T17:05:11.969Z,2.41
2022-11-30T17:10:13.771Z,2.4
2022-11-30T17:15:15.737Z,2.45
2022-11-30T17:20:17.369Z,2.53
2022-11-30T17:25:18.964Z,2.59
2022-11-30T17:30:20.997Z,2.56
2022-11-30T17:35:22.753Z,2.49
2022-11-30T17:40:24.136Z,2.41
2022-11-30T17:45:26.103Z,2.41
2022-11-30T17:50:28.242Z,2.32
2022-11-30T17:55:29.633Z,2.28
2022-11-30T18:00:30.990Z,2.29
2022-11-30T18:05:32.939Z,2.23
2022-11-30T18:10:34.302Z,2.13
2022-11-30T18:15:36.160Z,2.15
2022-11-30T18:20:38.287Z,2.16
2022-11-30T18:25:39.870Z,2.16
2022-11-30T18:30:41.766Z,2.08
2022-11-30T18:35:43.805Z,2.07
2022-11-30T18:40:45.157Z,2.07
2022-11-30T18:45:46.520Z,2.07
2022-11-30T18:50:48.513Z,2.08
2022-11-30T19:41:11.256Z,2.2
2022-11-30T19:46:12.990Z,2.25
2022-11-30T19:51:17.919Z,2.26
2022-11-30T20:06:18.964Z,2.39
2022-11-30T20:11:20.851Z,2.35
2022-11-30T20:16:22.273Z,2.32
2022-11-30T20:21:24.404Z,2.35
2022-11-30T20:26:26.062Z,2.33
2022-11-30T20:31:27.365Z,2.34
2022-11-30T20:36:28.688Z,2.32
2022-11-30T20:41:30.084Z,2.3
2022-11-30T20:46:31.889Z,2.28
2022-11-30T20:51:34.031Z,2.17
2022-11-30T20:56:35.708Z,2.09
2022-11-30T21:01:37.330Z,2.14
2022-11-30T21:06:39.229Z,2.11
2022-11-30T21:11:40.502Z,2.13
2022-11-30T21:16:41.595Z,2.11
2022-11-30T21:21:42.856Z,2.13
2022-11-30T21:26:44.221Z,2.17
2022-11-30T21:31:46.042Z,2.15
2022-11-30T21:36:48.171Z,2.1
2022-11-30T21:41:49.620Z,2.15
2022-11-30T21:46:51.854Z,2.21
2022-11-30T21:51:53.076Z,2.14
2022-11-30T21:56:54.383Z,1.99
2022-11-30T22:01:55.877Z,1.98
2022-11-30T22:06:57.612Z,2.01
2022-11-30T22:11:59.250Z,2.04
2022-11-30T22:17:00.837Z,1.95
2022-11-30T22:22:02.394Z,1.94
2022-11-30T22:27:03.659Z,1.96
2022-11-30T22:32:04.870Z,1.87
2022-11-30T22:37:06.231Z,1.82
2022-11-30T22:42:07.839Z,1.7
2022-11-30T22:47:09.810Z,1.67
2022-11-30T22:52:11.781Z,1.48
2022-11-30T22:57:13.113Z,1.39
2022-11-30T23:12:36.028Z,1.33
2022-11-30T23:17:19.542Z,1.26
2022-11-30T23:22:20.927Z,1.29
2022-11-30T23:27:22.614Z,1.28
2022-11-30T23:32:24.073Z,1.23
2022-11-30T23:37:25.245Z,1.12
2022-11-30T23:42:26.984Z,1.14
2022-11-30T23:47:28.612Z,1.16
2022-11-30T23:52:30.442Z,1.15
2022-11-30T23:57:32.354Z,1.08
